Time;durP1;ratioP1;P1;durP2;ratioP2;P2;SDS_P1;SDS_P2;PMS_P1;PMS_P2;Temp;Humidity;BMP_temperature;BMP_pressure;BME280_temperature;BME280_humidity;BME280_pressure;Samples;Min_cycle;Max_cycle;Signal;HPM_P1;HPM_P2
2022/08/19 00:01:29;;;;;;;14.98;12.70;;;;;;;26.78;73.29;99431.77;2821654;81;21015;-90
2022/08/19 00:05:31;;;;;;;14.53;10.97;;;;;;;26.74;73.87;99419.73;2807092;81;21066;-93
2022/08/19 00:09:34;;;;;;;15.15;11.10;;;;;;;26.68;73.77;99409.29;2815534;81;21443;-91
2022/08/19 00:13:36;;;;;;;16.67;11.35;;;;;;;26.64;73.50;99393.16;2826856;81;21003;-92
2022/08/19 00:17:40;;;;;;;12.60;11.22;;;;;;;26.61;73.34;99389.02;2820780;81;21046;-93
2022/08/19 00:21:43;;;;;;;13.50;11.73;;;;;;;26.57;73.22;99385.16;2816871;81;21113;-91
2022/08/19 00:25:44;;;;;;;16.52;12.30;;;;;;;26.51;73.17;99377.98;2836526;81;21053;-90
2022/08/19 00:29:46;;;;;;;15.63;11.28;;;;;;;26.44;73.31;99370.55;2758248;81;21003;-91
2022/08/19 00:33:50;;;;;;;13.40;10.98;;;;;;;26.41;73.63;99374.59;2823554;81;21019;-94
2022/08/19 00:37:51;;;;;;;10.70;9.70;;;;;;;26.35;73.64;99364.18;2826122;80;21061;-93
2022/08/19 00:41:52;;;;;;;13.88;11.12;;;;;;;26.30;73.62;99369.55;2815367;81;21075;-90
2022/08/19 00:45:54;;;;;;;12.93;11.60;;;;;;;26.24;73.96;99369.20;2855112;79;21035;-92
2022/08/19 00:49:58;;;;;;;12.35;11.05;;;;;;;26.15;74.13;99375.59;2830025;80;21041;-93
2022/08/19 00:54:02;;;;;;;10.75;9.75;;;;;;;26.05;74.60;99393.98;2800508;80;21361;-92
2022/08/19 00:58:07;;;;;;;16.82;11.73;;;;;;;25.93;75.58;99416.41;2861280;80;21071;-94
2022/08/19 01:02:09;;;;;;;10.93;9.83;;;;;;;25.89;75.92;99395.67;2894118;79;20998;-92
2022/08/19 01:06:10;;;;;;;11.97;10.65;;;;;;;25.84;76.11;99353.91;2870015;80;22276;-92
2022/08/19 01:10:18;;;;;;;14.45;12.95;;;;;;;25.90;76.16;99340.11;2864608;80;21060;-89
2022/08/19 01:14:19;;;;;;;17.42;11.30;;;;;;;25.91;77.26;99321.86;2940416;79;21059;-92
2022/08/19 01:18:22;;;;;;;11.65;10.45;;;;;;;25.85;78.97;99310.61;2902014;80;21005;-91
2022/08/19 01:22:31;;;;;;;11.63;9.75;;;;;;;25.74;79.19;99320.53;2920890;80;21055;-92
2022/08/19 01:26:41;;;;;;;12.37;11.10;;;;;;;25.67;81.02;99342.49;2853233;79;21485;-92
2022/08/19 01:30:43;;;;;;;18.77;12.85;;;;;;;25.61;80.21;99323.08;2905319;80;21046;-92
2022/08/19 01:34:46;;;;;;;15.45;12.47;;;;;;;25.54;80.42;99319.16;2820833;82;21054;-91
2022/08/19 01:38:49;;;;;;;17.82;12.82;;;;;;;25.48;80.93;99311.44;2857395;82;21594;-91
2022/08/19 01:42:52;;;;;;;13.25;11.18;;;;;;;25.39;80.68;99335.50;2841915;82;21062;-91
2022/08/19 01:46:53;;;;;;;16.30;11.25;;;;;;;25.37;80.92;99351.80;2830803;80;21078;-89
2022/08/19 01:50:55;;;;;;;16.62;11.38;;;;;;;25.32;80.92;99353.06;2808420;83;21039;-91
2022/08/19 01:54:57;;;;;;;14.20;12.03;;;;;;;25.29;81.24;99349.47;2774589;83;21066;-90
2022/08/19 01:59:06;;;;;;;16.02;13.85;;;;;;;25.25;80.94;99358.66;2840586;82;21026;-91
2022/08/19 02:03:09;;;;;;;13.68;11.25;;;;;;;25.24;80.84;99357.84;2843589;82;21019;-92
2022/08/19 02:07:10;;;;;;;12.98;11.68;;;;;;;25.16;80.95;99362.34;2824333;82;20999;-92
2022/08/19 02:11:28;;;;;;;13.48;11.57;;;;;;;25.04;82.36;99361.57;2839870;83;21582;-91
2022/08/19 02:15:30;;;;;;;23.50;12.85;;;;;;;24.97;81.51;99356.27;2858776;81;21050;-90
2022/08/19 02:19:32;;;;;;;13.58;12.00;;;;;;;24.95;81.56;99346.98;2804633;83;21026;-91
2022/08/19 02:23:33;;;;;;;21.05;14.00;;;;;;;24.76;83.52;99345.02;2839334;82;21591;-91
2022/08/19 02:27:35;;;;;;;13.62;10.98;;;;;;;24.55;84.10;99342.39;2820955;82;21031;-91
2022/08/19 02:31:36;;;;;;;13.15;10.43;;;;;;;24.34;85.88;99338.45;2820271;80;21671;-90
2022/08/19 02:35:46;;;;;;;20.90;13.80;;;;;;;24.34;84.83;99325.67;2763209;82;21136;-92
2022/08/19 02:39:48;;;;;;;16.65;13.45;;;;;;;24.35;84.71;99333.31;2814402;82;21081;-91
2022/08/19 02:43:49;;;;;;;16.55;13.58;;;;;;;24.32;85.40;99341.40;2830997;81;21050;-90
2022/08/19 02:47:51;;;;;;;16.07;12.50;;;;;;;24.21;85.57;99340.36;2844520;80;21035;-91
2022/08/19 02:51:52;;;;;;;12.75;11.38;;;;;;;24.07;86.85;99330.30;2859802;82;20976;-90
2022/08/19 02:55:54;;;;;;;15.10;12.03;;;;;;;23.98;86.84;99326.80;2805421;81;21086;-89
2022/08/19 02:59:55;;;;;;;13.25;11.80;;;;;;;23.98;86.68;99322.20;2832407;81;21086;-90
2022/08/19 03:04:00;;;;;;;12.20;10.95;;;;;;;23.98;86.94;99322.20;2841500;83;21055;-91
2022/08/19 03:08:04;;;;;;;13.72;12.40;;;;;;;23.91;87.52;99338.61;2844815;80;21069;-91
2022/08/19 03:12:05;;;;;;;16.25;11.93;;;;;;;23.88;86.61;99340.97;2826858;81;20979;-91
2022/08/19 03:16:07;;;;;;;14.73;12.82;;;;;;;23.88;86.80;99346.40;2823332;81;20994;-91
2022/08/19 03:20:09;;;;;;;15.10;13.50;;;;;;;23.84;86.91;99342.52;2839147;81;21058;-90
2022/08/19 03:24:12;;;;;;;13.38;11.97;;;;;;;23.88;87.11;99354.55;2825354;80;21070;-92
2022/08/19 03:28:15;;;;;;;42.60;15.43;;;;;;;23.76;87.38;99358.63;2823010;80;21050;-90
2022/08/19 03:32:16;;;;;;;18.27;12.28;;;;;;;23.62;88.19;99359.39;2832673;80;21034;-91
2022/08/19 03:36:22;;;;;;;13.98;11.30;;;;;;;23.43;90.19;99360.84;2824217;80;21016;-90
2022/08/19 03:40:24;;;;;;;13.32;11.60;;;;;;;23.21;91.43;99374.92;2842328;83;21138;-92
2022/08/19 03:44:25;;;;;;;15.18;11.65;;;;;;;22.98;92.86;99364.81;2813966;81;21066;-91
2022/08/19 03:48:27;;;;;;;15.13;12.43;;;;;;;22.89;93.56;99366.17;2801201;81;21079;-92
2022/08/19 03:52:28;;;;;;;15.38;10.90;;;;;;;22.72;95.04;99373.63;2776126;81;21050;-91
2022/08/19 03:56:32;;;;;;;17.52;13.55;;;;;;;22.61;95.79;99368.44;2903485;80;20988;-89
2022/08/19 04:00:34;;;;;;;17.12;12.00;;;;;;;22.55;96.27;99373.39;2886200;80;21047;-90
2022/08/19 04:04:38;;;;;;;20.92;12.28;;;;;;;22.45;97.10;99373.09;2822139;81;21082;-92
2022/08/19 04:08:41;;;;;;;17.15;14.35;;;;;;;22.41;98.02;99371.34;2868405;79;21061;-91
2022/08/19 04:12:43;;;;;;;17.02;14.03;;;;;;;22.50;97.56;99368.68;2855001;80;21036;-90
2022/08/19 04:16:46;;;;;;;16.27;12.90;;;;;;;22.57;97.58;99365.86;2861689;79;20983;-91
2022/08/19 04:20:48;;;;;;;14.03;11.95;;;;;;;22.79;96.75;99368.92;2918330;80;21006;-93
2022/08/19 04:24:49;;;;;;;17.02;12.37;;;;;;;23.12;94.76;99369.52;2893142;80;21023;-88
2022/08/19 04:28:52;;;;;;;13.72;11.63;;;;;;;23.38;93.20;99350.68;2845497;79;21582;-92
2022/08/19 04:32:53;;;;;;;13.68;12.05;;;;;;;23.44;92.74;99356.22;2854466;80;21401;-91
2022/08/19 04:36:58;;;;;;;16.30;14.25;;;;;;;23.59;92.24;99350.36;2847062;80;21044;-91
2022/08/19 04:45:20;;;;;;;15.48;13.95;;;;;;;23.79;91.04;99339.14;2895052;79;21005;-91
2022/08/19 04:49:23;;;;;;;18.90;14.20;;;;;;;23.81;90.78;99339.73;2917445;79;21037;-91
2022/08/19 04:53:28;;;;;;;15.28;11.53;;;;;;;23.76;91.29;99344.50;2886207;79;20980;-90
2022/08/19 04:57:29;;;;;;;14.50;12.00;;;;;;;23.80;91.42;99354.36;2869523;80;21061;-90
2022/08/19 05:01:33;;;;;;;17.65;12.60;;;;;;;24.03;90.29;99348.14;2818878;80;21011;-90
2022/08/19 05:05:40;;;;;;;37.93;19.90;;;;;;;23.98;90.54;99349.36;2813866;82;21067;-92
2022/08/19 05:09:42;;;;;;;15.30;12.68;;;;;;;24.10;90.92;99348.02;2857148;82;20991;-91
2022/08/19 05:13:45;;;;;;;14.58;12.10;;;;;;;24.22;90.42;99352.07;2833506;82;21689;-90
2022/08/19 05:22:32;;;;;;;19.92;12.98;;;;;;;24.37;90.00;99353.75;2855941;82;21046;-91
2022/08/19 05:26:10;;;;;;;21.45;13.80;;;;;;;24.52;89.25;99345.08;2832727;80;21000;-91
2022/08/19 05:30:13;;;;;;;25.10;15.38;;;;;;;24.43;90.25;99366.09;2861296;80;21034;-91
2022/08/19 05:34:15;;;;;;;17.15;14.45;;;;;;;24.52;90.09;99385.85;2814813;82;21006;-92
2022/08/19 05:38:18;;;;;;;17.62;13.72;;;;;;;24.72;88.75;99390.57;2825910;80;21086;-91
2022/08/19 05:42:20;;;;;;;17.57;13.58;;;;;;;24.86;87.61;99391.98;2823529;83;21051;-89
2022/08/19 05:46:22;;;;;;;18.67;13.93;;;;;;;25.15;86.85;99401.48;2794487;82;21039;-93
2022/08/19 05:50:23;;;;;;;15.23;13.62;;;;;;;25.42;85.84;99411.77;2754973;82;21020;-93
2022/08/19 05:54:25;;;;;;;17.02;13.62;;;;;;;25.68;84.47;99423.11;2902689;79;21013;-92
2022/08/19 05:58:27;;;;;;;14.87;13.35;;;;;;;25.98;85.24;99436.94;2920768;79;20992;-92
2022/08/19 06:02:35;;;;;;;16.17;14.28;;;;;;;26.27;82.63;99428.66;2876105;79;20972;-91
2022/08/19 06:06:34;;;;;;;18.23;12.88;;;;;;;26.60;82.23;99429.64;2896671;79;20989;-92
2022/08/19 06:10:36;;;;;;;17.92;13.78;;;;;;;27.08;81.79;99442.77;2860470;80;21022;-91
2022/08/19 06:14:38;;;;;;;19.12;13.18;;;;;;;27.57;79.27;99442.47;2856693;80;21692;-91
2022/08/19 06:18:39;;;;;;;17.35;13.20;;;;;;;27.89;76.04;99449.29;2825128;82;21037;-91
2022/08/19 06:22:46;;;;;;;17.45;13.72;;;;;;;28.14;76.13;99456.58;2866303;79;21112;-92
2022/08/19 06:26:50;;;;;;;18.32;14.15;;;;;;;28.43;74.44;99469.89;2904850;80;22110;-92
2022/08/19 06:30:51;;;;;;;19.85;15.18;;;;;;;28.49;72.48;99455.98;2855284;79;21082;-92
2022/08/19 06:34:53;;;;;;;19.67;14.20;;;;;;;28.49;72.48;99455.98;2791015;79;20964;-92
2022/08/19 06:39:00;;;;;;;21.90;16.42;;;;;;;28.71;70.92;99450.08;2852125;80;21025;-89
2022/08/19 06:43:00;;;;;;;;;;;;;;;28.71;70.92;99450.08;2887375;80;21061;-90
2022/08/19 06:47:05;;;;;;;24.63;16.75;;;;;;;28.84;71.64;99471.48;2851923;83;20121;-88
2022/08/19 06:51:06;;;;;;;16.90;13.38;;;;;;;28.64;70.09;99477.67;2825067;81;21088;-91
2022/08/19 06:55:08;;;;;;;15.58;13.98;;;;;;;28.53;70.27;99489.64;2800312;82;21007;-94
2022/08/19 06:59:16;;;;;;;16.67;14.00;;;;;;;28.72;70.54;99499.04;2839960;83;21041;-94
2022/08/19 07:03:17;;;;;;;13.50;11.95;;;;;;;28.97;70.63;99493.42;2840651;81;21054;-93
2022/08/19 07:07:21;;;;;;;16.50;10.53;;;;;;;29.14;69.79;99497.33;2813226;81;21082;-90
2022/08/19 07:11:22;;;;;;;11.80;10.40;;;;;;;29.22;68.38;99499.53;2806308;83;21484;-92
2022/08/19 07:15:24;;;;;;;22.02;12.00;;;;;;;29.24;66.93;99507.49;2851245;82;21872;-93
2022/08/19 07:19:27;;;;;;;11.33;8.83;;;;;;;29.01;67.19;99519.72;2841287;82;21028;-90
2022/08/19 07:23:28;;;;;;;14.03;10.40;;;;;;;28.84;66.99;99531.69;2759767;84;21011;-89
2022/08/19 07:27:30;;;;;;;13.55;10.63;;;;;;;28.82;67.57;99537.16;2792411;83;21108;-91
2022/08/19 07:31:36;;;;;;;11.45;9.48;;;;;;;29.19;68.54;99537.60;2811507;82;21082;-92
2022/08/19 07:35:35;;;;;;;18.23;10.63;;;;;;;29.31;66.75;99542.84;2794345;83;21562;-91
2022/08/19 07:39:38;;;;;;;13.30;10.88;;;;;;;29.57;66.92;99543.73;2829552;82;21046;-90
2022/08/19 07:43:40;;;;;;;14.00;10.68;;;;;;;29.68;64.84;99547.88;2842718;82;21078;-91
2022/08/19 07:47:42;;;;;;;12.23;10.40;;;;;;;29.95;64.86;99544.89;2796487;82;21003;-90
2022/08/19 07:51:46;;;;;;;11.88;10.50;;;;;;;30.10;64.38;99535.87;2859630;80;21020;-88
2022/08/19 07:55:48;;;;;;;14.05;10.28;;;;;;;30.23;63.30;99535.05;2835137;82;21023;-90
2022/08/19 07:59:50;;;;;;;13.43;11.68;;;;;;;30.44;63.74;99538.58;2891173;80;21062;-91
2022/08/19 08:12:40;;;;;;;10.23;8.35;;;;;;;30.82;61.13;99544.55;2895462;79;21042;-88
2022/08/19 08:16:43;;;;;;;9.40;8.20;;;;;;;30.83;61.17;99542.65;2915458;79;21046;-88
2022/08/19 08:20:44;;;;;;;9.30;8.38;;;;;;;30.84;60.15;99551.95;2827150;82;21019;-88
2022/08/19 08:24:46;;;;;;;13.32;9.30;;;;;;;30.56;61.19;99545.13;2911720;80;21043;-88
2022/08/19 08:28:48;;;;;;;37.15;12.70;;;;;;;30.61;62.96;99552.84;2857161;82;21059;-88
2022/08/19 08:32:51;;;;;;;20.92;9.30;;;;;;;30.68;62.36;99540.78;2905243;79;20992;-87
2022/08/19 08:36:52;;;;;;;10.63;9.00;;;;;;;30.83;63.66;99534.41;2868754;79;21357;-87
2022/08/19 08:41:06;;;;;;;22.05;11.53;;;;;;;31.03;63.01;99538.98;2794179;82;21039;-87
2022/08/19 08:45:15;;;;;;;18.10;7.08;;;;;;;31.32;61.75;99527.36;2924106;80;21011;-87
2022/08/19 08:49:22;;;;;;;14.78;8.58;;;;;;;31.58;58.89;99523.91;2866485;80;20987;-88
2022/08/19 08:53:25;;;;;;;13.35;9.73;;;;;;;31.70;59.99;99529.05;2820892;82;20996;-87
2022/08/19 08:57:54;;;;;;;10.08;9.08;;;;;;;31.68;60.86;99523.02;2829576;82;21130;-87
2022/08/19 09:01:53;;;;;;;14.45;10.68;;;;;;;31.65;60.18;99504.35;2892747;80;21043;-88
2022/08/19 09:06:06;;;;;;;13.08;10.50;;;;;;;31.59;61.65;99490.36;2855848;82;21075;-88
2022/08/19 09:10:34;;;;;;;17.27;11.22;;;;;;;31.55;59.93;99497.54;2841432;82;21062;-87
2022/08/19 09:14:47;;;;;;;25.72;11.88;;;;;;;31.36;60.98;99500.95;2894906;80;21062;-87
2022/08/19 09:18:57;;;;;;;20.55;10.98;;;;;;;31.27;60.86;99513.09;2862364;80;21014;-88
2022/08/19 09:22:59;;;;;;;11.95;10.10;;;;;;;31.39;59.88;99523.73;2856594;80;21032;-88
2022/08/19 09:27:02;;;;;;;28.67;10.38;;;;;;;31.47;60.57;99521.78;2796820;80;21006;-88
2022/08/19 09:31:03;;;;;;;10.82;8.93;;;;;;;31.46;62.24;99519.30;2923317;80;21056;-87
2022/08/19 09:35:06;;;;;;;11.93;9.38;;;;;;;31.38;60.48;99514.42;2856858;80;20977;-88
2022/08/19 09:39:07;;;;;;;12.58;9.33;;;;;;;31.19;60.73;99518.59;2868157;79;21039;-88
2022/08/19 09:43:10;;;;;;;12.18;10.93;;;;;;;31.04;61.95;99528.27;2863135;80;20981;-88
2022/08/19 09:47:13;;;;;;;13.83;10.10;;;;;;;30.91;62.05;99522.30;2904057;80;21062;-87
2022/08/19 09:51:22;;;;;;;12.33;10.23;;;;;;;30.90;62.21;99524.78;2825156;81;21075;-88
2022/08/19 09:55:25;;;;;;;14.20;10.48;;;;;;;30.85;62.25;99534.38;2907144;79;20998;-87
2022/08/19 09:59:28;;;;;;;13.30;10.00;;;;;;;30.82;62.08;99539.06;2858102;79;20970;-88
2022/08/19 10:03:31;;;;;;;11.53;8.53;;;;;;;30.94;63.59;99551.66;2934704;79;21006;-87
2022/08/19 10:07:33;;;;;;;9.85;8.10;;;;;;;31.14;60.46;99552.95;2860902;80;21002;-88
2022/08/19 10:11:37;;;;;;;11.12;8.25;;;;;;;31.15;60.90;99551.85;2827580;81;20946;-88
2022/08/19 10:15:41;;;;;;;9.50;8.58;;;;;;;31.38;62.02;99561.13;2875529;79;21026;-88
2022/08/19 10:19:42;;;;;;;13.90;9.93;;;;;;;31.20;60.46;99557.34;2868243;81;21432;-88
2022/08/19 10:23:49;;;;;;;12.82;10.72;;;;;;;31.16;60.88;99549.38;2805081;82;21058;-88
2022/08/19 10:27:51;;;;;;;8.70;7.85;;;;;;;31.16;61.70;99559.55;2881008;81;21016;-87
2022/08/19 10:31:53;;;;;;;15.20;10.00;;;;;;;30.98;61.01;99564.56;2860172;79;21036;-88
2022/08/19 10:36:11;;;;;;;10.95;8.35;;;;;;;31.12;62.18;99559.28;2920828;79;21066;-87
2022/08/19 10:40:13;;;;;;;9.08;8.18;;;;;;;31.23;60.77;99557.88;2913802;80;21018;-88
2022/08/19 10:44:16;;;;;;;17.75;7.75;;;;;;;31.53;61.92;99555.52;2873396;81;21152;-88
2022/08/19 10:48:18;;;;;;;9.43;8.28;;;;;;;31.84;60.98;99563.61;2879033;79;21042;-88
2022/08/19 10:52:34;;;;;;;13.13;8.25;;;;;;;32.12;61.60;99561.17;2908483;79;21001;-89
2022/08/19 10:56:51;;;;;;;8.05;7.25;;;;;;;32.38;58.61;99566.50;2827315;81;20973;-88
2022/08/19 11:00:56;;;;;;;13.68;8.68;;;;;;;32.36;57.58;99563.22;2864615;80;20978;-88
2022/08/19 11:04:58;;;;;;;9.73;7.60;;;;;;;32.27;58.74;99569.88;2861860;79;20985;-88
2022/08/19 11:08:59;;;;;;;8.45;7.65;;;;;;;32.31;59.30;99568.72;2859971;79;21003;-88
2022/08/19 11:13:02;;;;;;;15.28;8.23;;;;;;;32.30;57.78;99569.30;2864584;80;21034;-89
2022/08/19 11:17:05;;;;;;;7.80;6.80;;;;;;;32.52;60.25;99574.06;2860684;79;21005;-88
2022/08/19 11:21:16;;;;;;;9.47;6.57;;;;;;;32.73;59.81;99570.55;2911174;80;22134;-87
2022/08/19 11:25:18;;;;;;;7.85;5.85;;;;;;;32.81;59.44;99574.60;2936595;80;21044;-87
2022/08/19 11:29:21;;;;;;;13.68;7.53;;;;;;;32.70;57.51;99565.64;2872265;79;20986;-88
2022/08/19 11:33:26;;;;;;;7.45;6.62;;;;;;;32.61;59.58;99570.95;2878892;79;21510;-88
2022/08/19 11:37:26;;;;;;;9.80;6.67;;;;;;;32.67;59.90;99571.73;2920449;80;21069;-88
2022/08/19 11:41:28;;;;;;;43.02;14.80;;;;;;;32.69;59.75;99566.75;2910018;79;21054;-87
2022/08/19 11:45:30;;;;;;;38.13;14.25;;;;;;;32.64;59.99;99569.56;2849396;80;21041;-88
2022/08/19 11:49:36;;;;;;;17.25;13.50;;;;;;;32.36;59.37;99581.65;2915373;79;21276;-88
2022/08/19 11:53:36;;;;;;;17.00;11.60;;;;;;;31.94;59.67;99568.20;2857696;80;20958;-88
2022/08/19 11:57:40;;;;;;;18.77;12.45;;;;;;;31.62;60.95;99570.32;2865771;79;21041;-88
2022/08/19 12:01:43;;;;;;;17.07;13.98;;;;;;;31.37;61.30;99573.22;2858485;79;20996;-88
2022/08/19 12:05:44;;;;;;;17.32;13.00;;;;;;;31.21;61.50;99578.78;2871489;80;21527;-88
2022/08/19 12:09:46;;;;;;;16.30;14.40;;;;;;;31.09;62.34;99576.33;2815064;81;21133;-88
2022/08/19 12:13:47;;;;;;;17.70;13.08;;;;;;;31.04;61.79;99576.33;2857774;80;20987;-88
2022/08/19 12:17:49;;;;;;;15.60;12.95;;;;;;;31.02;61.69;99570.30;2918154;79;20960;-88
2022/08/19 12:21:55;;;;;;;15.83;12.85;;;;;;;30.99;62.26;99581.30;2849899;79;21057;-88
2022/08/19 12:25:56;;;;;;;16.60;13.00;;;;;;;31.32;62.81;99576.23;2882460;79;20995;-88
2022/08/19 12:30:01;;;;;;;18.70;15.38;;;;;;;31.35;61.77;99562.50;2883164;80;20974;-88
2022/08/19 12:34:02;;;;;;;16.75;13.58;;;;;;;31.45;61.29;99568.49;2864530;79;20978;-87
2022/08/19 12:38:03;;;;;;;29.92;16.45;;;;;;;31.54;61.48;99567.34;2858327;79;20938;-87
2022/08/19 12:42:05;;;;;;;17.32;13.90;;;;;;;31.54;60.87;99576.97;2860435;79;21021;-88
2022/08/19 12:46:08;;;;;;;19.23;14.68;;;;;;;31.52;61.08;99569.56;2919700;79;20993;-88
2022/08/19 12:50:09;;;;;;;17.73;15.43;;;;;;;31.57;61.29;99577.77;2887528;80;21471;-88
2022/08/19 12:54:11;;;;;;;20.08;16.12;;;;;;;31.55;60.86;99587.69;2829643;80;21055;-88
2022/08/19 12:58:12;;;;;;;18.10;15.45;;;;;;;31.45;61.70;99591.31;2829446;82;21111;-88
2022/08/19 13:02:14;;;;;;;14.03;12.73;;;;;;;31.41;62.44;99588.84;2815008;82;21070;-88
2022/08/19 13:06:15;;;;;;;19.65;14.03;;;;;;;31.30;62.29;99586.69;2790211;82;21081;-88
2022/08/19 13:10:20;;;;;;;18.75;13.98;;;;;;;31.32;63.71;99580.36;2840073;82;21039;-88
2022/08/19 13:14:22;;;;;;;14.80;13.22;;;;;;;31.23;62.10;99584.81;2853033;82;21050;-89
2022/08/19 13:18:25;;;;;;;15.28;13.60;;;;;;;31.21;62.34;99580.16;2868357;82;21142;-88
2022/08/19 13:22:26;;;;;;;14.03;12.40;;;;;;;31.14;61.60;99573.55;2837281;82;21027;-88
2022/08/19 13:26:28;;;;;;;15.38;13.62;;;;;;;31.03;62.43;99570.03;2854409;82;21062;-89
2022/08/19 13:34:52;;;;;;;13.00;11.65;;;;;;;30.61;63.28;99576.17;2890892;82;21026;-88
2022/08/19 13:38:53;;;;;;;23.62;12.28;;;;;;;30.46;64.00;99582.48;2893455;81;21043;-88
2022/08/19 13:42:55;;;;;;;12.40;11.12;;;;;;;30.33;65.17;99574.27;2827172;81;21099;-88
2022/08/19 13:47:06;;;;;;;14.60;13.15;;;;;;;30.37;64.69;99570.97;2809545;82;21027;-88
2022/08/19 13:51:11;;;;;;;13.62;11.95;;;;;;;30.26;64.93;99569.59;2807338;81;21102;-88
2022/08/19 13:55:12;;;;;;;;;;;;;;;30.26;65.91;99575.64;2865424;79;20974;-88
2022/08/19 13:59:14;;;;;;;15.00;13.20;;;;;;;30.11;65.13;99584.70;2862403;80;20171;-88
2022/08/19 14:03:16;;;;;;;12.70;11.25;;;;;;;30.02;65.60;99587.96;2863598;79;20985;-88
2022/08/19 14:07:17;;;;;;;12.00;10.78;;;;;;;29.89;65.10;99596.70;2878672;80;21021;-88
2022/08/19 14:11:19;;;;;;;13.53;11.35;;;;;;;29.87;65.51;99596.13;2827320;81;20934;-88
2022/08/19 14:15:21;;;;;;;12.55;11.35;;;;;;;29.86;65.76;99599.43;2927246;79;21084;-88
2022/08/19 14:19:22;;;;;;;15.95;10.78;;;;;;;29.91;66.43;99595.32;2858858;80;20992;-87
2022/08/19 14:23:24;;;;;;;16.35;11.85;;;;;;;29.95;65.84;99595.61;2906919;79;21026;-88
2022/08/19 14:27:25;;;;;;;11.90;9.75;;;;;;;29.93;66.37;99597.23;2824286;82;21028;-88
2022/08/19 14:31:27;;;;;;;12.93;11.70;;;;;;;29.91;66.72;99600.00;2857733;79;21009;-88
2022/08/19 14:35:34;;;;;;;13.70;11.73;;;;;;;29.84;66.68;99596.67;2908615;80;20972;-88
2022/08/19 14:39:34;;;;;;;14.73;11.38;;;;;;;29.82;66.52;99590.65;2904883;80;21517;-88
2022/08/19 14:43:36;;;;;;;12.15;10.15;;;;;;;29.75;66.60;99589.00;2839223;79;20996;-88
2022/08/19 14:47:38;;;;;;;28.75;16.82;;;;;;;29.70;67.05;99584.89;2811573;81;20987;-87
2022/08/19 14:51:40;;;;;;;11.75;10.08;;;;;;;29.61;67.28;99582.38;2834421;81;21062;-87
2022/08/19 14:55:44;;;;;;;13.93;12.47;;;;;;;29.70;67.71;99581.31;2844906;80;21006;-88
2022/08/19 14:59:46;;;;;;;12.82;10.03;;;;;;;29.86;67.50;99583.52;2850821;81;21034;-87
2022/08/19 15:03:48;;;;;;;18.60;10.90;;;;;;;29.81;66.11;99578.04;2844450;80;21016;-88
2022/08/19 15:07:50;;;;;;;15.03;11.95;;;;;;;29.73;66.00;99580.23;2756464;83;21015;-88
2022/08/19 15:11:52;;;;;;;13.45;11.20;;;;;;;29.62;66.64;99578.02;2855130;81;21363;-88
2022/08/19 15:15:55;;;;;;;25.08;11.90;;;;;;;29.63;66.75;99579.66;2884845;80;21030;-88
2022/08/19 15:19:56;;;;;;;11.70;10.43;;;;;;;29.58;66.56;99584.30;2886293;80;21015;-88
2022/08/19 15:23:59;;;;;;;14.07;10.30;;;;;;;29.63;66.01;99587.05;2844176;82;21003;-88
2022/08/19 15:28:01;;;;;;;16.37;12.18;;;;;;;29.60;67.13;99578.00;2830357;81;21024;-88
2022/08/19 15:32:02;;;;;;;19.35;13.62;;;;;;;29.50;65.87;99576.89;2786473;83;21374;-87
2022/08/19 15:36:05;;;;;;;18.27;14.93;;;;;;;29.43;66.07;99580.41;2839096;82;20960;-87
2022/08/19 15:40:08;;;;;;;17.25;12.40;;;;;;;29.33;66.21;99581.73;2803324;82;21047;-87
2022/08/19 15:44:17;;;;;;;12.68;11.38;;;;;;;29.28;66.36;99577.59;2791924;84;29791;-87
2022/08/19 15:48:18;;;;;;;11.05;9.93;;;;;;;29.26;66.27;99571.55;2867991;80;21177;-88
2022/08/19 15:52:21;;;;;;;14.03;10.43;;;;;;;29.29;66.31;99550.50;2866657;82;21030;-88
2022/08/19 15:56:22;;;;;;;12.07;10.88;;;;;;;29.17;65.96;99541.97;2864264;82;21015;-88
2022/08/19 16:09:04;;;;;;;11.43;10.18;;;;;;;29.11;66.68;99552.63;2817738;82;21083;-87
2022/08/19 16:13:05;;;;;;;13.62;11.48;;;;;;;29.05;66.52;99541.36;2848177;80;21051;-88
2022/08/19 16:17:10;;;;;;;11.73;9.65;;;;;;;29.04;66.69;99546.55;2798033;81;21090;-87
2022/08/19 16:21:10;;;;;;;23.55;11.25;;;;;;;29.14;66.79;99557.56;2792879;82;21058;-88
2022/08/19 16:25:12;;;;;;;14.65;9.35;;;;;;;29.02;66.58;99574.74;2865337;81;21428;-87
2022/08/19 16:29:16;;;;;;;10.58;9.53;;;;;;;29.12;67.61;99573.44;2868868;83;21046;-87
2022/08/19 16:33:17;;;;;;;13.20;9.70;;;;;;;29.24;66.76;99555.94;2838259;80;21062;-87
2022/08/19 16:37:20;;;;;;;11.12;9.18;;;;;;;29.27;65.62;99549.92;2821980;82;21019;-88
2022/08/19 16:41:22;;;;;;;11.20;9.95;;;;;;;29.17;65.95;99541.13;2769847;82;21031;-88
2022/08/19 16:45:24;;;;;;;26.30;12.53;;;;;;;29.14;66.42;99534.30;2828851;80;21047;-87
2022/08/19 16:49:28;;;;;;;18.40;11.08;;;;;;;29.00;66.35;99548.19;2815885;82;21055;-88
2022/08/19 16:53:30;;;;;;;11.27;9.50;;;;;;;28.86;67.22;99553.33;2828256;80;20992;-87
2022/08/19 16:57:32;;;;;;;12.25;9.95;;;;;;;28.74;67.39;99563.89;2883191;82;21027;-87
2022/08/19 17:01:33;;;;;;;15.68;10.80;;;;;;;28.69;68.31;99572.61;2817367;80;21078;-88
2022/08/19 17:05:45;;;;;;;14.93;10.98;;;;;;;28.50;69.26;99582.64;2817314;82;21015;-87
2022/08/19 17:09:46;;;;;;;12.37;10.30;;;;;;;28.32;69.49;99604.36;2886964;82;21035;-87
2022/08/19 17:13:49;;;;;;;15.65;9.78;;;;;;;28.22;69.29;99608.67;2883575;80;21027;-87
2022/08/19 17:17:51;;;;;;;12.13;10.82;;;;;;;28.15;69.67;99618.94;2885791;82;21574;-88
2022/08/19 17:21:53;;;;;;;19.75;10.53;;;;;;;28.11;70.35;99611.55;2876548;82;21027;-87
2022/08/19 17:25:55;;;;;;;22.45;13.60;;;;;;;28.05;71.15;99625.14;2842117;82;21051;-87
2022/08/19 17:29:58;;;;;;;13.45;11.28;;;;;;;27.91;70.13;99636.22;2842810;81;21577;-87
2022/08/19 17:34:00;;;;;;;15.10;10.43;;;;;;;27.84;70.93;99636.95;2864333;82;21043;-88
2022/08/19 17:38:07;;;;;;;18.02;10.78;;;;;;;27.73;71.27;99640.95;2789557;82;20983;-87
2022/08/19 17:42:09;;;;;;;12.07;10.38;;;;;;;27.62;72.25;99643.27;2819392;82;21124;-87
2022/08/19 17:46:19;;;;;;;12.18;10.85;;;;;;;27.65;71.85;99638.13;2822054;80;21031;-88
2022/08/19 17:50:18;;;;;;;10.50;9.40;;;;;;;27.50;72.21;99634.62;2788262;83;21062;-87
2022/08/19 17:54:20;;;;;;;11.65;10.55;;;;;;;27.54;72.54;99635.53;2807548;84;21082;-87
2022/08/19 17:58:21;;;;;;;13.58;10.53;;;;;;;27.50;72.34;99649.64;2820759;83;21047;-86
2022/08/19 18:02:24;;;;;;;11.10;9.40;;;;;;;27.44;72.71;99658.86;2827222;83;21074;-87
2022/08/19 18:06:25;;;;;;;11.78;10.35;;;;;;;27.42;73.09;99665.11;2792279;83;21051;-88
2022/08/19 18:10:30;;;;;;;11.93;9.98;;;;;;;27.41;72.78;99677.64;2796161;83;21030;-87
2022/08/19 18:14:36;;;;;;;16.57;11.15;;;;;;;27.37;73.35;99680.07;2821170;83;21054;-88
2022/08/19 18:18:40;;;;;;;13.05;11.38;;;;;;;27.33;73.57;99673.47;2853344;83;21086;-87
2022/08/19 18:22:46;;;;;;;15.25;12.47;;;;;;;27.31;73.46;99668.25;2813648;83;21070;-87
2022/08/19 18:26:48;;;;;;;16.57;14.53;;;;;;;27.30;74.24;99673.42;2856228;83;21086;-87
2022/08/19 18:30:49;;;;;;;17.80;12.20;;;;;;;27.30;74.52;99665.76;2828839;83;21052;-87
2022/08/19 18:34:52;;;;;;;19.98;13.50;;;;;;;27.20;75.00;99659.62;2789208;83;21037;-87
2022/08/19 18:51:43;;;;;;;20.90;16.62;;;;;;;27.06;75.36;99680.99;2743045;84;21133;-87
2022/08/19 18:55:48;;;;;;;21.97;16.52;;;;;;;27.03;75.80;99681.50;2708611;84;21077;-87
2022/08/19 18:59:48;;;;;;;21.15;16.05;;;;;;;26.91;76.22;99693.32;2735086;84;21078;-87
2022/08/19 19:03:53;;;;;;;22.42;16.30;;;;;;;26.89;75.94;99700.93;2833152;81;21069;-87
2022/08/19 19:07:54;;;;;;;20.70;15.88;;;;;;;26.88;76.20;99703.92;2795947;81;21054;-87
2022/08/19 19:12:00;;;;;;;24.35;15.85;;;;;;;26.86;77.18;99711.53;2771566;83;21027;-87
2022/08/19 19:16:03;;;;;;;58.98;21.23;;;;;;;26.86;77.45;99726.55;2804718;81;21035;-87
2022/08/19 19:20:05;;;;;;;43.42;19.05;;;;;;;26.79;78.14;99727.48;2821719;81;21023;-87
2022/08/19 19:24:07;;;;;;;23.95;14.33;;;;;;;26.79;77.90;99713.03;2822799;81;21019;-87